Terminal Aerodrome Forecast
Issued by NWS

Home | Current Version | Previous Version | Graphics & Text | Print | Product List | Glossary Off
Versions: 1 2 3 4 5 6 7 8 9 10 11 12 13 14 15 16 17 18 19 20 21 22 23 24 25 26 27 28 29 30

000
FTUS43 KDDC 151336 AAB
TAFGCK
TAF AMD
KGCK 151336Z 1514/1612 07008KT 6SM -FZRA BR SCT006 OVC035
     FM151700 09006KT 4SM -FZRA BR BKN005 OVC060
     FM152200 09004KT P6SM OVC005=

USA.gov is the U.S. government's official web portal to all federal, state and local government web resources and services.